createdAt,value
2022-11-26T00:01:21.387Z,408.35
2022-11-26T00:05:24.129Z,412.98
2022-11-26T00:09:26.100Z,701.72
2022-11-26T00:13:30.430Z,421.30
2022-11-26T00:17:32.299Z,473.15
2022-11-26T00:21:38.189Z,470.77
2022-11-26T00:25:44.129Z,414.27
2022-11-26T00:29:46.128Z,526.15
2022-11-26T00:33:48.210Z,382.33
2022-11-26T00:37:58.867Z,409.77
2022-11-26T00:42:00.719Z,557.67
2022-11-26T00:46:02.828Z,412.30
2022-11-26T00:50:05.313Z,491.17
2022-11-26T00:54:12.217Z,475.00
2022-11-26T00:58:23.875Z,524.83
2022-11-26T01:02:25.953Z,578.85
2022-11-26T01:06:32.618Z,347.23
2022-11-26T01:10:34.692Z,387.55
2022-11-26T01:14:36.675Z,437.20
2022-11-26T01:18:38.965Z,468.95
2022-11-26T01:22:40.731Z,522.65
2022-11-26T01:26:44.624Z,410.48
2022-11-26T01:30:46.804Z,427.23
2022-11-26T01:34:48.797Z,459.83
2022-11-26T01:38:52.730Z,381.45
2022-11-26T01:43:11.028Z,451.52
2022-11-26T01:47:29.169Z,407.13
2022-11-26T01:51:31.175Z,516.53
2022-11-26T01:55:43.597Z,368.27
2022-11-26T01:59:59.246Z,552.22
2022-11-26T02:04:20.396Z,372.63
2022-11-26T02:08:24.960Z,442.70
2022-11-26T02:12:27.198Z,389.67
2022-11-26T02:17:10.860Z,405.42
2022-11-26T02:21:23.887Z,340.10
2022-11-26T02:25:41.116Z,408.70
2022-11-26T02:30:00.379Z,437.63
2022-11-26T02:34:18.651Z,439.90
2022-11-26T02:38:26.341Z,391.98
2022-11-26T02:42:31.486Z,356.40
2022-11-26T02:46:33.348Z,348.52
2022-11-26T02:50:40.737Z,412.48
2022-11-26T02:54:45.069Z,464.02
2022-11-26T02:58:49.396Z,383.02
2022-11-26T03:03:00.333Z,453.88
2022-11-26T03:07:05.453Z,448.35
2022-11-26T03:11:07.264Z,348.00
2022-11-26T03:15:09.662Z,458.15
2022-11-26T03:19:11.712Z,586.50
2022-11-26T03:23:13.704Z,493.70
2022-11-26T03:27:15.609Z,345.05
2022-11-26T03:31:17.547Z,547.40
2022-11-26T03:35:19.331Z,373.45
2022-11-26T03:39:21.554Z,497.58
2022-11-26T03:43:23.540Z,450.38
2022-11-26T03:47:25.449Z,483.60
2022-11-26T03:51:27.280Z,391.02
2022-11-26T03:55:29.141Z,327.85
2022-11-26T03:59:30.834Z,441.70
2022-11-26T04:03:32.949Z,449.98
2022-11-26T04:07:34.657Z,529.95
2022-11-26T04:11:36.777Z,360.73
2022-11-26T04:15:38.683Z,613.20
2022-11-26T04:19:40.728Z,469.08
2022-11-26T04:23:42.317Z,367.27
2022-11-26T04:27:44.242Z,367.73
2022-11-26T04:31:45.965Z,272.48
2022-11-26T04:35:47.982Z,560.10
2022-11-26T04:39:49.751Z,482.92
2022-11-26T04:43:51.664Z,300.02
2022-11-26T04:47:53.799Z,286.50
2022-11-26T04:51:55.851Z,402.33
2022-11-26T04:55:57.516Z,305.92
2022-11-26T04:59:59.366Z,530.22
2022-11-26T05:04:01.026Z,394.35
2022-11-26T05:08:03.074Z,318.77
2022-11-26T05:12:05.046Z,260.25
2022-11-26T05:16:07.369Z,311.25
2022-11-26T05:20:09.945Z,262.92
2022-11-26T05:24:11.862Z,251.88
2022-11-26T05:28:14.061Z,404.60
2022-11-26T05:32:16.164Z,254.88
2022-11-26T05:36:17.814Z,289.85
2022-11-26T05:40:19.863Z,344.08
2022-11-26T05:44:21.549Z,342.55
2022-11-26T05:48:23.392Z,297.00
2022-11-26T05:52:25.162Z,296.75
2022-11-26T05:56:27.038Z,355.63
2022-11-26T06:00:29.608Z,276.23
2022-11-26T06:04:32.746Z,234.07
2022-11-26T06:08:34.657Z,217.40
2022-11-26T06:12:36.694Z,233.80
2022-11-26T06:16:38.461Z,227.07
2022-11-26T06:20:40.535Z,276.30
2022-11-26T06:24:42.245Z,231.02
2022-11-26T06:28:44.573Z,247.80
2022-11-26T06:32:46.264Z,243.75
2022-11-26T06:36:48.153Z,202.32
2022-11-26T06:40:57.984Z,198.10
2022-11-26T06:45:00.289Z,211.73
2022-11-26T06:49:03.001Z,201.88
2022-11-26T06:53:04.996Z,220.85
2022-11-26T06:57:06.768Z,191.23
2022-11-26T07:01:18.279Z,188.40
2022-11-26T07:05:20.069Z,175.95
2022-11-26T07:09:21.989Z,158.48
2022-11-26T07:13:23.756Z,160.07
2022-11-26T07:17:28.237Z,154.63
2022-11-26T07:21:30.778Z,116.45
2022-11-26T07:25:32.699Z,129.93
2022-11-26T07:29:34.444Z,121.57
2022-11-26T07:33:36.695Z,133.57
2022-11-26T07:37:38.411Z,120.65
2022-11-26T07:41:40.416Z,116.82
2022-11-26T07:45:42.165Z,104.25
2022-11-26T07:49:44.130Z,126.18
2022-11-26T07:53:46.561Z,118.40
2022-11-26T07:57:48.458Z,140.32
2022-11-26T08:01:50.616Z,131.35
2022-11-26T08:05:52.560Z,155.88
2022-11-26T08:09:54.552Z,129.43
2022-11-26T08:13:59.873Z,136.95
2022-11-26T08:18:01.866Z,120.07
2022-11-26T08:22:03.740Z,127.68
2022-11-26T08:26:32.682Z,128.48
2022-11-26T08:30:30.936Z,127.28
2022-11-26T08:34:33.697Z,122.28
2022-11-26T08:38:35.675Z,115.85
2022-11-26T08:42:37.757Z,101.18
2022-11-26T08:46:41.338Z,130.70
2022-11-26T08:50:43.352Z,129.48
2022-11-26T08:54:45.681Z,124.85
2022-11-26T08:58:49.073Z,128.57
2022-11-26T09:02:50.886Z,113.63
2022-11-26T09:06:52.915Z,121.13
2022-11-26T09:10:55.989Z,139.25
2022-11-26T09:14:57.721Z,141.73
2022-11-26T09:19:01.202Z,123.75
2022-11-26T09:23:02.976Z,140.88
2022-11-26T09:27:08.026Z,145.15
2022-11-26T09:31:10.077Z,121.82
2022-11-26T09:35:12.013Z,134.23
2022-11-26T09:39:14.366Z,125.72
2022-11-26T09:43:32.387Z,113.07
2022-11-26T09:47:41.676Z,101.30
2022-11-26T09:51:46.739Z,87.07
2022-11-26T09:55:51.820Z,97.75
2022-11-26T09:59:56.054Z,90.45
2022-11-26T10:03:58.907Z,88.65
2022-11-26T10:08:32.993Z,89.85
2022-11-26T10:13:03.530Z,94.50
2022-11-26T10:17:28.323Z,104.47
2022-11-26T10:22:03.552Z,96.82
2022-11-26T10:26:28.830Z,96.40
2022-11-26T10:30:30.832Z,99.53
2022-11-26T10:34:41.741Z,96.05
2022-11-26T10:38:43.613Z,101.97
2022-11-26T10:43:12.715Z,103.28
2022-11-26T10:51:33.455Z,108.88
2022-11-26T10:55:41.270Z,112.13
2022-11-26T10:59:51.288Z,104.85
2022-11-26T11:04:13.864Z,105.70
2022-11-26T11:08:32.002Z,101.40
2022-11-26T11:12:38.973Z,116.97
2022-11-26T11:16:46.038Z,112.38
2022-11-26T11:20:54.811Z,111.67
2022-11-26T11:24:59.171Z,118.95
2022-11-26T11:29:01.124Z,111.22
2022-11-26T11:33:23.270Z,123.43
2022-11-26T11:37:25.309Z,108.93
2022-11-26T11:41:33.050Z,123.93
2022-11-26T11:45:47.352Z,117.72
2022-11-26T11:50:18.260Z,121.20
2022-11-26T11:54:40.355Z,103.22
2022-11-26T11:58:56.079Z,116.80
2022-11-26T12:03:10.782Z,114.65
2022-11-26T12:07:38.746Z,99.32
2022-11-26T12:11:56.691Z,110.55
2022-11-26T12:16:05.665Z,107.57
2022-11-26T12:20:19.844Z,109.93
2022-11-26T12:24:45.842Z,102.88
2022-11-26T12:29:18.141Z,94.35
2022-11-26T12:33:27.072Z,115.78
2022-11-26T12:37:32.105Z,95.55
2022-11-26T12:41:42.587Z,95.65
2022-11-26T12:45:56.642Z,99.18
2022-11-26T12:50:23.959Z,240.07
2022-11-26T12:54:33.597Z,103.20
2022-11-26T12:59:12.467Z,107.53
2022-11-26T13:03:18.381Z,106.20
2022-11-26T13:07:41.838Z,99.80
2022-11-26T13:12:15.084Z,101.43
2022-11-26T13:16:19.381Z,98.57
2022-11-26T13:20:36.825Z,119.95
2022-11-26T13:25:27.565Z,122.32
2022-11-26T13:29:57.572Z,113.95
2022-11-26T13:34:11.202Z,100.53
2022-11-26T13:38:19.240Z,106.28
2022-11-26T13:42:31.952Z,118.78
2022-11-26T13:46:55.899Z,129.30
2022-11-26T13:51:09.151Z,104.55
2022-11-26T13:55:19.041Z,102.88
2022-11-26T13:59:28.373Z,115.20
2022-11-26T14:03:48.730Z,128.57
2022-11-26T14:07:50.575Z,120.65
2022-11-26T14:11:57.339Z,130.80
2022-11-26T14:16:04.499Z,120.15
2022-11-26T14:20:07.412Z,122.18
2022-11-26T14:24:09.111Z,106.82
2022-11-26T14:28:11.231Z,124.88
2022-11-26T14:32:22.418Z,121.07
2022-11-26T14:36:29.466Z,112.38
2022-11-26T14:40:34.311Z,115.40
2022-11-26T14:44:36.433Z,122.30
2022-11-26T14:48:44.550Z,148.10
2022-11-26T14:56:49.183Z,114.97
2022-11-26T15:01:23.901Z,128.95
2022-11-26T15:05:28.976Z,128.88
2022-11-26T15:09:30.649Z,108.82
2022-11-26T15:13:39.565Z,118.53
2022-11-26T15:17:46.367Z,110.72
2022-11-26T15:21:48.446Z,111.88
2022-11-26T15:25:51.525Z,120.70
2022-11-26T15:29:53.461Z,121.88
2022-11-26T15:33:55.323Z,125.35
2022-11-26T15:37:57.747Z,129.35
2022-11-26T15:42:07.791Z,121.78
2022-11-26T15:46:16.466Z,111.70
2022-11-26T15:50:24.480Z,125.88
2022-11-26T15:54:49.783Z,118.38
2022-11-26T15:58:57.391Z,127.05
2022-11-26T16:02:59.704Z,141.05
2022-11-26T16:07:29.183Z,105.90
2022-11-26T16:11:36.539Z,124.20
2022-11-26T16:15:48.230Z,139.07
2022-11-26T16:19:56.435Z,133.45
2022-11-26T16:24:06.905Z,131.35
2022-11-26T16:28:11.797Z,127.47
2022-11-26T16:32:15.731Z,131.55
2022-11-26T16:36:19.085Z,133.63
2022-11-26T16:40:21.489Z,117.32
2022-11-26T16:44:23.402Z,124.30
2022-11-26T16:48:27.333Z,132.65
2022-11-26T16:52:29.431Z,112.03
2022-11-26T16:56:39.735Z,100.63
2022-11-26T17:00:41.712Z,101.80
2022-11-26T17:04:43.706Z,115.57
2022-11-26T17:08:49.700Z,103.35
2022-11-26T17:13:08.168Z,94.72
2022-11-26T17:17:12.655Z,104.38
2022-11-26T17:21:14.892Z,92.43
2022-11-26T17:25:16.588Z,103.15
2022-11-26T17:29:18.528Z,109.07
2022-11-26T17:33:20.286Z,100.70
2022-11-26T17:37:28.377Z,91.07
2022-11-26T17:41:30.067Z,97.10
2022-11-26T17:45:32.072Z,91.00
2022-11-26T17:49:33.745Z,81.78
2022-11-26T17:53:35.802Z,89.07
2022-11-26T17:57:37.454Z,94.40
2022-11-26T18:01:39.517Z,87.65
2022-11-26T18:05:42.411Z,90.45
2022-11-26T18:09:44.743Z,107.40
2022-11-26T18:13:46.360Z,109.00
2022-11-26T18:17:50.912Z,101.07
2022-11-26T18:21:52.918Z,103.40
2022-11-26T18:25:54.862Z,98.63
2022-11-26T18:29:56.740Z,89.93
2022-11-26T18:33:59.376Z,79.85
2022-11-26T18:38:00.987Z,87.70
2022-11-26T18:42:35.476Z,88.95
2022-11-26T18:46:25.586Z,76.88
2022-11-26T18:50:27.565Z,72.97
2022-11-26T18:54:29.265Z,72.78
2022-11-26T18:58:31.186Z,78.38
2022-11-26T19:02:35.813Z,72.00
2022-11-26T19:06:39.312Z,89.80
2022-11-26T19:10:41.423Z,94.38
2022-11-26T19:14:43.823Z,92.07
2022-11-26T19:18:46.619Z,94.57
2022-11-26T19:22:48.704Z,76.30
2022-11-26T19:26:50.378Z,82.43
2022-11-26T19:31:08.113Z,77.93
2022-11-26T19:35:10.740Z,71.53
2022-11-26T19:39:12.695Z,81.13
2022-11-26T19:43:14.420Z,75.18
2022-11-26T19:47:16.476Z,91.63
2022-11-26T19:51:20.080Z,79.88
2022-11-26T19:55:22.138Z,76.38
2022-11-26T19:59:23.929Z,77.00
2022-11-26T20:03:27.063Z,91.13
2022-11-26T20:07:28.776Z,87.80
2022-11-26T20:11:31.333Z,82.85
2022-11-26T20:15:37.354Z,90.95
2022-11-26T20:19:39.830Z,90.60
2022-11-26T20:23:41.953Z,89.25
2022-11-26T20:27:44.212Z,101.13
2022-11-26T20:31:48.082Z,100.63
2022-11-26T20:35:50.551Z,106.57
2022-11-26T20:39:52.138Z,99.18
2022-11-26T20:43:59.131Z,96.47
2022-11-26T20:48:01.367Z,98.37
2022-11-26T20:52:03.698Z,98.72
2022-11-26T20:56:06.147Z,99.60
2022-11-26T21:00:08.615Z,109.43
2022-11-26T21:04:10.286Z,93.65
2022-11-26T21:08:12.254Z,106.25
2022-11-26T21:12:14.744Z,114.68
2022-11-26T21:16:16.935Z,116.82
2022-11-26T21:20:18.703Z,106.53
2022-11-26T21:24:20.801Z,118.57
2022-11-26T21:28:22.474Z,114.90
2022-11-26T21:32:24.488Z,115.45
2022-11-26T21:36:27.522Z,124.78
2022-11-26T21:40:30.186Z,127.03
2022-11-26T21:44:32.300Z,113.85
2022-11-26T21:48:35.693Z,124.20
2022-11-26T21:52:38.029Z,104.57
2022-11-26T21:56:40.118Z,107.47
2022-11-26T22:00:43.226Z,110.10
2022-11-26T22:04:45.220Z,101.85
2022-11-26T22:08:49.987Z,100.75
2022-11-26T22:12:51.909Z,112.95
2022-11-26T22:16:53.755Z,103.20
2022-11-26T22:20:55.916Z,114.10
2022-11-26T22:24:57.522Z,106.13
2022-11-26T22:28:59.976Z,102.55
2022-11-26T22:33:03.593Z,99.03
2022-11-26T22:37:05.601Z,97.03
2022-11-26T22:41:10.471Z,95.10
2022-11-26T22:45:12.472Z,106.68
2022-11-26T22:49:16.015Z,104.38
2022-11-26T22:53:18.357Z,99.75
2022-11-26T22:57:25.150Z,111.13
2022-11-26T23:01:30.796Z,104.53
2022-11-26T23:05:36.987Z,117.97
2022-11-26T23:09:43.783Z,108.60
2022-11-26T23:13:50.085Z,106.75
2022-11-26T23:17:51.755Z,106.45
2022-11-26T23:21:53.893Z,107.57
2022-11-26T23:25:55.607Z,127.22
2022-11-26T23:29:58.372Z,114.50
2022-11-26T23:34:01.133Z,125.03
2022-11-26T23:38:02.938Z,121.95
2022-11-26T23:42:05.076Z,105.18
2022-11-26T23:46:11.522Z,113.95
2022-11-26T23:50:14.380Z,116.97
2022-11-26T23:54:16.091Z,123.28
2022-11-26T23:58:19.193Z,111.10
